This demonstration page uses our WeatherBlox Daily Observations layout. Learn more.

Left ArrowRight Arrow

41.55636, -103.73856

Hourly Observations for November 6, 2019

Temp ( °F °C ) Dew Point ( °F °C ) Humidity (%) Winds ( mph kmh ) Pressure ( in mb ) Visibility ( mi km ) Precip ( " mm )
12:58 am 00:58 Clear 42 5.7 29 -1.9 58 58 SSW 7 11 30.17 1022 10 16.0934 N/A
1:58 am 01:58 Clear 40 4.5 30 -1.3 66 66 SW 6 9 30.18 1022 10 16.0934 N/A
2:58 am 02:58 Clear 41 4.8 29 -1.8 63 63 SSW 8 13 30.17 1022 10 16.0934 N/A
3:58 am 03:58 Clear 38 3.2 28 -2 69 69 SSW 10 17 30.17 1022 10 16.0934 N/A
4:58 am 04:58 Clear 39 3.8 27 -2.7 63 63 SW 6 9 30.15 1021 10 16.0934 N/A
5:56 am 05:56 Clear 41 5.2 27 -2.9 56 56 W 3 6 30.1 1019 10 16.0934 N/A
6:58 am 06:58 Clear 37 2.6 28 -2.2 71 71 SW 3 6 30.1 1019 10 16.0934 N/A
7:58 am 07:58 Clear 39 4.1 27 -3 60 60 NW 3 6 30.09 1019 10 16.0934 N/A
8:58 am 08:58 Clear 36 2.1 26 -3.2 68 68 WNW 6 9 30.09 1019 10 16.0934 N/A
10:58 am 10:58 Clear 37 2.5 24 -4.7 59 59 WNW 5 7 30.1 1019 10 16.0934 N/A
11:58 am 11:58 Clear 29 -1.5 24 -4.6 80 80 N 6 9 30.18 1022 10 16.0934 N/A
12:58 pm 12:58 Mostly Cloudy with Freezing Fog 29 -1.8 28 -2.1 98 98 NNE 15 24 30.23 1024 3 4.82802 N/A
1:58 pm 13:58 Mostly Cloudy with Freezing Fog 30 -0.9 30 -1.1 99 99 NE 10 17 30.29 1026 1 1.60934 N/A
2:58 pm 14:58 Mostly Cloudy with Light Snow 31 -0.5 31 -0.7 99 99 NE 12 19 30.34 1027 0.25 0.402335 N/A
3:58 pm 15:58 Cloudy 28 -2.2 28 -2.4 99 99 NE 16 26 30.37 1028 10 16.0934 N/A
4:58 pm 16:58 Cloudy 28 -2.3 27 -2.7 97 97 NE 15 24 30.39 1029 10 16.0934 N/A
5:58 pm 17:58 Cloudy 28 -2.4 27 -2.9 96 96 NE 15 24 30.51 1033 10 16.0934 N/A
6:58 pm 18:58 Cloudy 27 -2.7 26 -3.5 94 94 NE 17 28 30.41 1030 10 16.0934 N/A
7:58 pm 19:58 Cloudy 27 -2.6 25 -3.9 91 91 NE 15 24 30.4 1030 10 16.0934 N/A
8:58 pm 20:58 Cloudy 26 -3.1 25 -4.1 93 93 ENE 12 19 30.43 1031 10 16.0934 N/A
9:58 pm 21:58 Cloudy 25 -3.8 24 -4.5 95 95 ENE 12 19 30.47 1032 10 16.0934 N/A
10:58 pm 22:58 Cloudy with Light Snow Showers 24 -4.2 23 -4.8 96 96 ENE 12 19 30.49 1032 4 6.43736 N/A
11:58 pm 23:58 Mostly Cloudy with Light Freezing Drizzle 22 -5.3 22 -5.7 97 97 NE 13 20 30.54 1034 1 1.60934 N/A

Powered by AerisWeather